Latest Coastal Weather Observations for Cerberus

IDV60701

Issued at 5:21 pm EST Wednesday 29 June 2016 (issued every 10 minutes, with the page automatically refreshed every 10 minutes)

About coastal observations | Map of coastal stations | Coastal observations for VIC | Marine services | Other Formats
Station Details ID: 086361 Name: CERBERUS Lat: -38.36 Lon: 145.18 Height: 12.69 m
Data from the previous 72 hours. | See also: Recent months at Cerberus
Date/Time
EST
Temp
°C
Wind Pressure Rain since
9am
mm
Weather Cloud Vis
km
Sea
Height
m
Swell
Dir  Spd
kts
Gust
kts
hPa Trend Height
m
Period
s
Dir
29/05:00pm 13.2 N 7 14 1021.1 - 0.0 - - - - - - -
29/04:30pm 13.7 N 8 12 1021.6 - 0.0 - - - - - - -
29/04:00pm 14.2 N 5 15 1021.7 - 0.0 - - - - - - -
29/03:30pm 14.2 N 6 13 1022.0 - 0.0 - - - - - - -
29/03:00pm 14.7 N 8 14 1022.0 - 0.0 - - - - - - -
29/02:30pm 14.8 N 6 13 1022.5 - 0.0 - - - - - - -
29/02:00pm 14.8 NNW 5 11 1022.9 - 0.0 - - - - - - -
29/01:30pm 15.2 NNW 5 10 1023.4 - 0.0 - - - - - - -
29/01:00pm 14.4 NNW 6 12 1023.9 - 0.0 - - - - - - -
29/12:30pm 14.3 NNW 8 14 1024.5 - 0.0 - - - - - - -
29/12:00pm 14.6 NNW 8 13 1024.9 - 0.0 - - - - - - -
29/11:30am 14.6 NW 10 16 1025.5 - 0.0 - - - - - - -
29/11:00am 14.3 NW 6 13 1025.9 - 0.0 - - - - - - -
29/10:30am 13.2 NW 7 13 1026.1 - 0.0 - - - - - - -
29/10:00am 13.0 NNW 8 15 1026.1 - 0.0 - - - - - - -
29/09:30am 12.3 NNW 7 14 1026.0 - 0.0 - - - - - - -
29/09:00am 11.7 NNW 6 12 1025.8 - 0.2 - - - - - - -
29/08:30am 10.9 CALM 0 7 1025.7 - 0.2 - - - - - - -
29/08:00am 10.2 CALM 0 7 1025.7 - 0.2 - - - - - - -
29/07:30am 10.0 NNW 1 7 1025.5 - 0.2 - - - - - - -
29/07:00am 9.2 CALM 0 0 1025.4 - 0.2 - - - - - - -
29/06:30am 9.3 CALM 0 0 1025.4 - 0.2 - - - - - - -
29/06:00am 9.8 NNW 1 7 1025.1 - 0.2 - - - - - - -
29/05:30am 9.8 CALM 0 6 1025.0 - 0.2 - - - - - - -
29/05:00am 9.1 CALM 0 0 1024.9 - 0.2 - - - - - - -
29/04:30am 9.1 CALM 0 0 1024.9 - 0.2 - - - - - - -
29/04:00am 9.7 CALM 0 0 1024.8 - 0.2 - - - - - - -
29/03:30am 10.3 CALM 0 6 1025.0 - 0.2 - - - - - - -
29/03:00am 10.8 NNW 2 8 1025.0 - 0.2 - - - - - - -
29/02:30am 10.6 CALM 0 6 1025.0 - 0.2 - - - - - - -
29/02:00am 10.8 NNW 3 10 1025.0 - 0.2 - - - - - - -
29/01:30am 10.8 NNW 6 11 1025.0 - 0.2 - - - - - - -
29/01:00am 10.9 NNW 1 7 1025.2 - 0.2 - - - - - - -
29/12:30am 10.8 NNW 5 11 1025.2 - 0.2 - - - - - - -
29/12:00am 11.2 NNW 6 12 1025.2 - 0.2 - - - - - - -
 
Date/Time
EST
Temp
°C
Wind Pressure Rain since
9am
mm
Weather Cloud Vis
km
Sea
Height
m
Swell
Dir  Spd
kts
Gust
kts
hPa Trend Height
m
Period
s
Dir
28/11:30pm 11.2 NNW 7 13 1025.3 - 0.2 - - - - - - -
28/11:00pm 10.9 NNW 5 11 1025.3 - 0.2 - - - - - - -
28/10:30pm 10.9 NNW 6 11 1025.3 - 0.0 - - - - - - -
28/10:00pm 11.4 NNW 6 12 1025.3 - 0.0 - - - - - - -
28/09:30pm 11.6 NNW 3 8 1025.2 - 0.0 - - - - - - -
28/09:00pm 11.7 NNW 7 12 1025.2 - 0.0 - - - - - - -
28/08:30pm 11.9 NW 6 14 1024.9 - 0.0 - - - - - - -
28/08:00pm 11.9 NW 5 10 1024.8 - 0.0 - - - - - - -
28/07:30pm 12.4 NNW 3 8 1024.7 - 0.0 - - - - - - -
28/07:00pm 12.9 NNW 3 11 1024.4 - 0.0 - - - - - - -
28/06:30pm 12.8 NNW 3 9 1024.2 - 0.0 - - - - - - -
28/06:00pm 12.8 NW 5 9 1024.0 - 0.0 - - - - - - -
28/05:30pm 12.2 NW 1 7 1023.6 - 0.0 - - - - - - -
28/05:00pm 12.9 NW 2 9 1023.4 - 0.0 - - - - - - -
28/04:30pm 14.1 NW 2 9 1023.1 - 0.0 - - - - - - -
28/04:00pm 14.7 WNW 7 12 1023.0 - 0.0 - - - - - - -
28/03:30pm 14.8 WNW 8 12 1022.8 - 0.0 - - - - - - -
28/03:00pm 14.3 NW 10 14 1022.9 - 0.0 - - - - - - -
28/02:30pm 15.2 WNW 10 17 1022.6 - 0.0 - - - - - - -
28/02:00pm 15.3 WNW 11 17 1022.4 - 0.0 - - - - - - -
28/01:30pm 14.9 NW 11 18 1022.5 - 0.0 - - - - - - -
28/01:00pm 14.8 NW 9 15 1022.6 - 0.0 - - - - - - -
28/12:30pm 14.3 NW 8 16 1022.8 - 0.0 - - - - - - -
28/12:00pm 13.7 NW 10 17 1023.1 - 0.0 - - - - - - -
28/11:30am 13.5 NW 9 15 1023.3 - 0.0 - - - - - - -
28/11:00am 12.9 NW 9 13 1023.3 - 0.0 - - - - - - -
28/10:30am 12.5 NW 9 15 1023.3 - 0.0 - - - - - - -
28/10:00am 12.2 NW 7 13 1023.0 - 0.0 - - - - - - -
28/09:30am 11.3 NNW 6 12 1022.8 - 0.0 - - - - - - -
28/09:00am 10.4 NNW 5 13 1022.6 - 0.2 - - - - - - -
28/08:30am 9.3 NNW 4 9 1022.4 - 0.2 - - - - - - -
28/08:00am 8.6 NNW 3 9 1022.3 - 0.2 - - - - - - -
28/07:30am 8.8 NNW 6 10 1022.0 - 0.2 - - - - - - -
28/07:00am 8.8 NNW 6 11 1021.7 - 0.2 - - - - - - -
28/06:30am 8.6 NNW 7 11 1021.5 - 0.2 - - - - - - -
28/06:00am 9.0 NNW 6 10 1021.2 - 0.2 - - - - - - -
28/05:30am 8.5 NNW 6 11 1020.9 - 0.2 - - - - - - -
28/05:00am 7.9 NNW 3 10 1020.6 - 0.2 - - - - - - -
28/04:30am 7.7 NNW 1 8 1020.5 - 0.2 - - - - - - -
28/04:00am 7.8 NNW 5 10 1020.5 - 0.2 - - - - - - -
28/03:30am 7.5 NNW 2 8 1020.7 - 0.2 - - - - - - -
28/03:00am 7.6 NNW 1 8 1020.6 - 0.2 - - - - - - -
28/02:30am 7.5 NNW 1 7 1020.6 - 0.2 - - - - - - -
28/02:00am 7.6 NW 1 8 1020.6 - 0.2 - - - - - - -
28/01:30am 7.6 CALM 0 0 1020.5 - 0.2 - - - - - - -
28/01:00am 7.9 NNW 3 8 1020.4 - 0.0 - - - - - - -
28/12:30am 7.6 CALM 0 0 1020.5 - 0.0 - - - - - - -
28/12:00am 7.6 CALM 0 0 1020.6 - 0.0 - - - - - - -
 
Date/Time
EST
Temp
°C
Wind Pressure Rain since
9am
mm
Weather Cloud Vis
km
Sea
Height
m
Swell
Dir  Spd
kts
Gust
kts
hPa Trend Height
m
Period
s
Dir
27/11:30pm 7.8 NW 1 7 1020.5 - 0.0 - - - - - - -
27/11:00pm 7.7 CALM 0 0 1020.4 - 0.0 - - - - - - -
27/10:30pm 7.8 CALM 0 7 1020.4 - 0.0 - - - - - - -
27/10:00pm 7.9 NNW 1 6 1020.1 - 0.0 - - - - - - -
27/09:30pm 7.8 CALM 0 6 1020.0 - 0.0 - - - - - - -
27/09:00pm 8.2 NNW 1 7 1019.8 - 0.0 - - - - - - -
27/08:30pm 8.4 NNW 1 7 1019.7 - 0.0 - - - - - - -
27/08:00pm 8.6 CALM 0 6 1019.6 - 0.0 - - - - - - -
27/07:30pm 8.5 CALM 0 0 1019.3 - 0.0 - - - - - - -
27/07:00pm 9.1 NW 1 7 1018.9 - 0.0 - - - - - - -
27/06:30pm 9.7 NW 1 7 1018.7 - 0.0 - - - - - - -
27/06:00pm 9.7 NW 3 8 1018.5 - 0.0 - - - - - - -
27/05:30pm 9.7 NW 5 9 1018.2 - 0.0 - - - - - - -
27/05:00pm 9.7 NW 4 7 1017.9 - 0.0 - - - - - - -
27/04:30pm 10.4 NW 6 9 1017.7 - 0.0 - - - - - - -
27/04:00pm 11.2 NW 6 10 1017.3 - 0.0 - - - - - - -
27/03:30pm 11.4 NW 8 11 1017.2 - 0.0 - - - - - - -
27/03:00pm 11.7 NW 8 12 1017.0 - 0.0 - - - - - - -
27/02:30pm 11.5 NW 9 13 1016.7 - 0.0 - - - - - - -
27/02:00pm 10.8 NW 9 13 1016.6 - 0.0 - - - - - - -
27/01:30pm 10.8 NW 10 16 1016.7 - 0.0 - - - - - - -
27/01:00pm 10.4 WNW 10 17 1016.7 - 0.0 - - - - - - -
27/12:30pm 10.5 WNW 10 17 1016.7 - 0.0 - - - - - - -
27/12:00pm 10.8 NW 8 15 1016.8 - 0.0 - - - - - - -
27/11:30am 10.6 NW 9 15 1017.1 - 0.0 - - - - - - -
27/11:00am 10.2 NW 9 17 1017.1 - 0.0 - - - - - - -
27/10:30am 9.9 NNW 8 14 1017.1 - 0.0 - - - - - - -
27/10:00am 9.3 NNW 8 16 1017.0 - 0.0 - - - - - - -
27/09:30am 8.6 NNW 6 12 1017.0 - 0.0 - - - - - - -
27/09:00am 8.0 N 1 7 1016.8 - 0.0 - - - - - - -
27/08:30am 8.1 N 4 10 1016.5 - 0.0 - - - - - - -
27/08:00am 8.1 NNW 5 12 1016.2 - 0.0 - - - - - - -
27/07:30am 7.8 NNW 3 10 1016.1 - 0.0 - - - - - - -
27/07:00am 8.1 N 2 11 1016.0 - 0.0 - - - - - - -
27/06:30am 7.9 NNW 2 9 1015.8 - 0.0 - - - - - - -
27/06:00am 7.8 N 1 9 1015.6 - 0.0 - - - - - - -
27/05:30am 7.5 CALM 0 0 1015.3 - 0.0 - - - - - - -
27/05:00am 7.4 CALM 0 8 1015.2 - 0.0 - - - - - - -
27/04:30am 7.3 N 1 7 1015.3 - 0.0 - - - - - - -
27/04:00am 7.1 CALM 0 7 1015.3 - 0.0 - - - - - - -
27/03:30am 6.6 N 1 10 1015.3 - 0.0 - - - - - - -
27/03:00am 6.7 NNW 4 12 1015.3 - 0.0 - - - - - - -
27/02:30am 6.0 CALM 0 0 1015.5 - 0.0 - - - - - - -
27/02:00am 6.0 CALM 0 7 1015.7 - 0.0 - - - - - - -
27/01:30am 6.3 NNW 1 8 1015.8 - 0.0 - - - - - - -
27/01:00am 6.5 N 5 10 1015.9 - 0.0 - - - - - - -
27/12:30am 6.6 NNW 4 11 1015.9 - 0.0 - - - - - - -
27/12:00am 6.1 NNW 2 8 1015.9 - 0.0 - - - - - - -
 
Date/Time
EST
Temp
°C
Wind Pressure Rain since
9am
mm
Weather Cloud Vis
km
Sea
Height
m
Swell
Dir  Spd
kts
Gust
kts
hPa Trend Height
m
Period
s
Dir
26/11:30pm 6.0 CALM 0 7 1016.0 - 0.0 - - - - - - -
26/11:00pm 5.8 CALM 0 7 1015.9 - 0.0 - - - - - - -
26/10:30pm 6.2 CALM 0 6 1016.0 - 0.0 - - - - - - -
26/10:00pm 6.2 CALM 0 6 1016.0 - 0.0 - - - - - - -
26/09:30pm 6.0 CALM 0 0 1016.1 - 0.0 - - - - - - -
26/09:00pm 6.3 CALM 0 0 1016.4 - 0.0 - - - - - - -
26/08:30pm 6.3 CALM 0 0 1016.6 - 0.0 - - - - - - -
26/08:00pm 7.2 N 1 8 1016.6 - 0.0 - - - - - - -
26/07:30pm 7.7 CALM 0 0 1016.6 - 0.0 - - - - - - -
26/07:00pm 8.7 N 1 10 1016.6 - 0.0 - - - - - - -
26/06:30pm 8.9 NNW 2 10 1016.6 - 0.0 - - - - - - -
26/06:00pm 9.1 N 1 8 1016.6 - 0.0 - - - - - - -
26/05:30pm 9.1 NNW 3 9 1016.4 - 0.0 - - - - - - -

Other Formats:

Comma delimited format used in spreadsheet applications
http://www.bom.gov.au/fwo/IDV60701/IDV60701.94898.axf

JavaScript Object Notation format (JSON) in row-major order
http://www.bom.gov.au/fwo/IDV60701/IDV60701.94898.json